Time;durP1;ratioP1;P1;durP2;ratioP2;P2;SDS_P1;SDS_P2;PMS_P1;PMS_P2;Temp;Humidity;BMP_temperature;BMP_pressure;BME280_temperature;BME280_humidity;BME280_pressure;Samples;Min_cycle;Max_cycle;Signal;HPM_P1;HPM_P2
2023/03/29 00:00:21;;;;;;;;;11.50;11.50;;;;;12.47;52.71;101338.81;6244435;22;45566;-64
2023/03/29 00:02:47;;;;;;;;;15.50;13.00;;;;;12.62;52.77;101353.53;6246307;22;45268;-64
2023/03/29 00:05:13;;;;;;;;;13.50;12.50;;;;;12.61;52.83;101343.72;6246288;22;45658;-64
2023/03/29 00:07:39;;;;;;;;;15.00;15.00;;;;;12.57;52.81;101334.91;6244242;22;45441;-64
2023/03/29 00:10:05;;;;;;;;;9.25;7.00;;;;;12.54;52.81;101323.44;6245662;22;45223;-64
2023/03/29 00:12:30;;;;;;;;;14.50;12.75;;;;;12.58;52.61;101320.63;6245583;22;45339;-64
2023/03/29 00:14:56;;;;;;;;;13.75;13.75;;;;;12.35;52.40;101277.63;6246298;22;45272;-64
2023/03/29 00:17:21;;;;;;;;;13.50;12.75;;;;;12.48;52.33;101307.53;6244900;22;45546;-64
2023/03/29 00:19:47;;;;;;;;;14.00;14.00;;;;;12.47;52.31;101298.66;6243738;22;45491;-64
2023/03/29 00:22:14;;;;;;;;;11.75;9.25;;;;;12.48;52.34;101297.75;6243562;22;45402;-64
2023/03/29 00:24:39;;;;;;;;;12.50;12.25;;;;;12.71;52.41;101328.25;6243855;22;45352;-64
2023/03/29 00:27:05;;;;;;;;;15.50;11.75;;;;;12.71;52.33;101333.59;6242887;22;46618;-64
2023/03/29 00:29:31;;;;;;;;;13.25;13.00;;;;;12.68;52.57;101317.63;6243929;22;45338;-64
2023/03/29 00:31:56;;;;;;;;;16.00;14.75;;;;;12.64;52.28;101307.94;6246204;22;45323;-64
2023/03/29 00:34:23;;;;;;;;;12.00;12.00;;;;;12.68;52.25;101320.31;6245977;22;45228;-64
2023/03/29 00:36:51;;;;;;;;;14.00;13.75;;;;;12.46;52.44;101291.53;6245282;22;46260;-64
2023/03/29 00:39:18;;;;;;;;;13.25;13.25;;;;;12.75;52.37;101335.28;6242758;22;45349;-64
2023/03/29 00:41:45;;;;;;;;;14.00;12.75;;;;;12.71;52.47;101322.91;6243508;22;45333;-64
2023/03/29 00:45:01;;;;;;;;;12.50;11.50;;;;;12.72;52.42;101313.94;6245552;22;45510;-64
2023/03/29 00:47:31;;;;;;;;;12.00;10.75;;;;;12.63;52.26;101309.78;6211452;22;45380;-64
2023/03/29 00:50:03;;;;;;;;;9.50;8.50;;;;;12.67;52.41;101318.56;6244118;22;45831;-64
2023/03/29 00:52:30;;;;;;;;;13.50;12.25;;;;;12.73;52.50;101334.44;6245359;22;45244;-64
2023/03/29 00:55:01;;;;;;;;;15.75;12.25;;;;;12.73;52.35;101339.78;6247128;22;45516;-64
2023/03/29 00:57:29;;;;;;;;;9.25;8.50;;;;;12.61;52.72;101308.91;6243816;22;48429;-64
2023/03/29 00:59:57;;;;;;;;;14.75;11.00;;;;;12.62;52.58;101318.72;6247207;22;45529;-64
2023/03/29 01:02:27;;;;;;;;;12.75;11.25;;;;;12.70;52.38;101324.69;6247006;22;45351;-64
2023/03/29 01:05:04;;;;;;;;;8.50;8.50;;;;;12.62;52.24;101299.09;6247549;22;45200;-64
2023/03/29 01:07:40;;;;;;;;;8.75;8.75;;;;;12.52;52.39;101280.63;6246779;22;45260;-69
2023/03/29 01:10:17;;;;;;;;;14.25;13.75;;;;;12.66;52.22;101309.63;6246654;22;45548;-64
2023/03/29 01:12:50;;;;;;;;;11.75;11.75;;;;;12.68;52.28;101309.59;6246868;22;45356;-64
2023/03/29 01:15:24;;;;;;;;;11.25;10.25;;;;;12.78;52.38;101322.66;6244880;22;45452;-64
2023/03/29 01:17:52;;;;;;;;;13.00;12.00;;;;;12.67;51.91;101300.69;6246481;22;45919;-64
2023/03/29 01:20:33;;;;;;;;;11.00;9.25;;;;;12.76;52.26;101319.16;6246729;22;45372;-64
2023/03/29 01:23:25;;;;;;;;;14.50;11.00;;;;;12.77;52.38;101312.00;6246855;22;45271;-64
2023/03/29 01:26:35;;;;;;;;;12.00;7.75;;;;;12.74;52.29;101304.06;6247271;22;45563;-64
2023/03/29 01:29:39;;;;;;;;;12.25;10.50;;;;;12.75;52.26;101300.47;6242175;22;45398;-64
2023/03/29 01:32:25;;;;;;;;;12.25;10.75;;;;;12.60;52.28;101272.38;6247381;22;45487;-64
2023/03/29 01:35:14;;;;;;;;;9.50;8.25;;;;;12.79;52.38;101299.41;6245532;22;45336;-64
2023/03/29 01:37:46;;;;;;;;;11.75;11.50;;;;;12.76;52.09;101297.72;6244380;22;45617;-64
2023/03/29 01:40:12;;;;;;;;;12.50;11.00;;;;;12.75;52.31;101292.41;6244806;22;47088;-64
2023/03/29 01:43:05;;;;;;;;;12.25;10.50;;;;;12.69;52.33;101285.44;6246531;22;45302;-64
2023/03/29 01:45:48;;;;;;;;;9.75;9.75;;;;;12.78;52.37;101297.69;6247223;22;45331;-64
2023/03/29 01:48:36;;;;;;;;;8.75;7.75;;;;;12.74;52.53;101288.84;6246720;22;45454;-64
2023/03/29 01:51:08;;;;;;;;;12.00;11.00;;;;;12.71;52.08;101280.94;6246860;22;46555;-64
2023/03/29 01:53:49;;;;;;;;;14.75;13.00;;;;;12.75;52.50;101289.75;6245864;22;45252;-64
2023/03/29 01:56:21;;;;;;;;;12.50;9.25;;;;;12.65;52.71;101273.09;6246421;22;45374;-64
2023/03/29 01:58:52;;;;;;;;;11.25;8.75;;;;;12.76;52.45;101295.06;6246806;22;45319;-64
2023/03/29 02:01:24;;;;;;;;;9.75;8.25;;;;;12.72;52.34;101281.81;6246605;22;45244;-64
2023/03/29 02:03:53;;;;;;;;;11.75;11.50;;;;;12.69;52.40;101284.56;6244834;22;45331;-64
2023/03/29 02:06:24;;;;;;;;;10.50;9.25;;;;;12.66;52.47;101284.66;6245354;22;45237;-64
2023/03/29 02:08:51;;;;;;;;;11.00;9.25;;;;;12.71;52.35;101298.78;6246433;22;45374;-64
2023/03/29 02:11:18;;;;;;;;;10.75;9.25;;;;;12.68;52.55;101305.13;6246018;22;45253;-64
2023/03/29 02:13:43;;;;;;;;;10.50;10.50;;;;;12.65;52.81;101283.81;6244807;22;45317;-64
2023/03/29 02:16:11;;;;;;;;;10.75;8.00;;;;;12.68;52.93;101289.06;6245176;22;45248;-64
2023/03/29 02:18:39;;;;;;;;;8.75;8.75;;;;;12.65;52.89;101291.84;6246461;22;45519;-64
2023/03/29 02:21:06;;;;;;;;;12.00;9.25;;;;;12.66;52.74;101284.66;6244749;22;47222;-64
2023/03/29 02:23:44;;;;;;;;;7.75;7.75;;;;;12.60;52.75;101272.38;6246428;22;45739;-64
2023/03/29 02:26:09;;;;;;;;;7.00;7.00;;;;;12.52;52.89;101253.84;6243955;22;45353;-64
2023/03/29 02:28:36;;;;;;;;;8.25;7.25;;;;;12.54;52.79;101254.66;6246712;22;45257;-64
2023/03/29 02:31:11;;;;;;;;;9.00;9.00;;;;;12.48;52.84;101238.81;6246249;22;46162;-64
2023/03/29 02:33:53;;;;;;;;;8.50;8.50;;;;;12.70;52.94;101265.78;6246197;22;45615;-64
2023/03/29 02:36:28;;;;;;;;;8.00;7.50;;;;;12.64;52.69;101252.56;6246890;22;45589;-64
2023/03/29 02:38:57;;;;;;;;;7.75;7.75;;;;;12.70;52.73;101276.50;6244414;22;45361;-64
2023/03/29 02:41:24;;;;;;;;;9.00;9.00;;;;;12.71;53.10;101267.53;6246195;22;45572;-64
2023/03/29 02:43:51;;;;;;;;;12.00;9.50;;;;;12.58;52.98;101244.75;6246541;22;45600;-64
2023/03/29 02:46:18;;;;;;;;;10.25;7.75;;;;;12.57;53.10;101238.50;6246732;22;45327;-64
2023/03/29 02:48:46;;;;;;;;;13.00;10.75;;;;;12.49;53.15;101221.81;6246202;22;45493;-64
2023/03/29 02:51:19;;;;;;;;;11.25;11.00;;;;;12.55;53.21;101234.16;6244559;22;47530;-64
2023/03/29 02:53:51;;;;;;;;;8.25;7.25;;;;;12.58;53.11;101248.31;6245785;22;45296;-64
2023/03/29 02:56:18;;;;;;;;;9.00;9.00;;;;;12.53;53.24;101242.22;6246011;22;45276;-64
2023/03/29 02:58:44;;;;;;;;;8.75;8.75;;;;;12.38;53.46;101213.28;6246683;22;45258;-64
2023/03/29 03:01:10;;;;;;;;;12.25;12.00;;;;;12.35;53.31;101194.63;6246502;22;45303;-64
2023/03/29 03:03:35;;;;;;;;;8.00;7.00;;;;;12.34;53.31;101193.75;6246635;22;45323;-64
2023/03/29 03:06:01;;;;;;;;;9.25;7.00;;;;;12.38;53.31;101200.75;6246858;22;45169;-64
2023/03/29 03:08:26;;;;;;;;;9.50;9.25;;;;;12.63;53.79;101242.81;6245585;22;45275;-64
2023/03/29 03:10:52;;;;;;;;;9.75;9.25;;;;;12.40;53.62;101214.09;6246136;22;45322;-64
2023/03/29 03:13:18;;;;;;;;;8.75;8.75;;;;;12.36;53.57;101204.41;6246184;22;45362;-64
2023/03/29 03:15:47;;;;;;;;;14.25;12.00;;;;;12.35;53.62;101218.72;6246605;22;45950;-64
2023/03/29 03:18:13;;;;;;;;;9.50;8.50;;;;;12.43;53.68;101216.69;6246396;22;45185;-64
2023/03/29 03:20:39;;;;;;;;;6.50;6.50;;;;;12.39;53.71;101206.97;6246490;22;45806;-64
2023/03/29 03:23:05;;;;;;;;;10.00;9.00;;;;;12.31;53.75;101195.66;6243753;22;45594;-64
2023/03/29 03:25:34;;;;;;;;;9.25;9.25;;;;;12.33;53.73;101196.47;6245961;22;45335;-64
2023/03/29 03:27:59;;;;;;;;;11.25;9.25;;;;;12.52;54.05;101232.44;6245740;22;45555;-64
2023/03/29 03:30:25;;;;;;;;;10.00;10.00;;;;;12.29;54.13;101182.31;6245916;22;46134;-64
2023/03/29 03:32:53;;;;;;;;;8.75;7.75;;;;;12.38;54.08;101194.53;6246320;22;45757;-64
2023/03/29 03:35:19;;;;;;;;;6.50;6.50;;;;;12.55;54.38;101239.50;6246618;22;45283;-64
2023/03/29 03:37:44;;;;;;;;;8.00;6.75;;;;;12.31;54.15;101198.31;6245094;22;45476;-64
2023/03/29 03:40:10;;;;;;;;;10.00;10.00;;;;;12.30;54.72;101192.09;6246147;22;45319;-64
2023/03/29 03:42:38;;;;;;;;;9.50;8.00;;;;;12.42;54.38;101209.56;6245605;22;45621;-64
2023/03/29 03:45:04;;;;;;;;;9.00;8.00;;;;;12.54;54.70;101232.38;6246652;22;45347;-64
2023/03/29 03:47:29;;;;;;;;;7.75;7.50;;;;;12.52;54.44;101237.78;6245692;22;45414;-64
2023/03/29 03:49:55;;;;;;;;;5.00;5.00;;;;;12.39;54.99;101199.81;6243977;22;47051;-64
2023/03/29 03:52:20;;;;;;;;;9.25;9.25;;;;;12.35;54.64;101183.94;6246443;22;45370;-64
2023/03/29 03:54:47;;;;;;;;;10.00;8.00;;;;;12.40;54.49;101193.53;6246494;22;45454;-64
2023/03/29 03:57:12;;;;;;;;;9.00;8.00;;;;;12.68;54.72;101227.47;6245161;22;45716;-64
2023/03/29 03:59:38;;;;;;;;;6.75;6.75;;;;;12.69;54.89;101237.22;6246209;22;46286;-64
2023/03/29 04:02:04;;;;;;;;;12.50;12.25;;;;;12.67;54.68;101238.22;6246106;22;45222;-64
2023/03/29 04:04:30;;;;;;;;;8.75;7.75;;;;;12.51;54.98;101197.66;6246118;22;45189;-64
2023/03/29 04:07:01;;;;;;;;;7.00;7.00;;;;;12.70;55.00;101230.09;6245928;22;45321;-64
2023/03/29 04:09:30;;;;;;;;;8.50;7.50;;;;;12.50;54.88;101202.16;6244951;22;45448;-64
2023/03/29 04:11:56;;;;;;;;;8.25;8.00;;;;;12.49;55.07;101202.22;6245295;22;45311;-64
2023/03/29 04:14:21;;;;;;;;;12.75;9.25;;;;;12.48;55.02;101189.72;6246091;22;45267;-64
2023/03/29 04:16:47;;;;;;;;;12.75;10.75;;;;;12.51;55.13;101192.31;6244468;22;45488;-64
2023/03/29 04:19:13;;;;;;;;;11.75;9.00;;;;;12.63;55.08;101202.63;6245536;22;46155;-64
2023/03/29 04:21:38;;;;;;;;;9.00;8.00;;;;;12.54;55.21;101182.38;6245794;22;45415;-64
2023/03/29 04:24:04;;;;;;;;;8.75;8.00;;;;;12.54;55.40;101184.19;6247343;22;45332;-64
2023/03/29 04:26:30;;;;;;;;;8.25;8.25;;;;;12.79;55.56;101230.63;6246796;22;45409;-64
2023/03/29 04:28:55;;;;;;;;;8.25;8.25;;;;;12.56;55.36;101183.22;6244920;22;46902;-64
2023/03/29 04:31:20;;;;;;;;;12.00;9.50;;;;;12.53;55.29;101172.59;6247397;22;45361;-64
2023/03/29 04:33:46;;;;;;;;;9.50;8.75;;;;;12.81;55.42;101214.50;6245688;22;45368;-64
2023/03/29 04:36:14;;;;;;;;;8.25;7.25;;;;;12.54;55.44;101168.97;6245417;22;45886;-64
2023/03/29 04:38:40;;;;;;;;;10.75;7.50;;;;;12.62;55.61;101179.44;6246645;22;45341;-64
2023/03/29 04:41:12;;;;;;;;;8.00;7.25;;;;;12.81;55.88;101219.00;6247036;22;45564;-64
2023/03/29 04:43:38;;;;;;;;;9.50;9.50;;;;;12.87;55.94;101221.47;6246636;22;45334;-64
2023/03/29 04:46:06;;;;;;;;;7.25;7.00;;;;;12.62;55.85;101182.13;6246980;22;45454;-64
2023/03/29 04:48:32;;;;;;;;;11.50;10.75;;;;;12.55;56.04;101168.06;6246715;22;46272;-64
2023/03/29 04:50:58;;;;;;;;;9.00;7.25;;;;;12.66;56.02;101188.25;6247021;22;45375;-64
2023/03/29 04:53:23;;;;;;;;;12.25;9.00;;;;;12.88;56.14;101225.88;6246888;22;45326;-64
2023/03/29 04:55:49;;;;;;;;;7.75;7.50;;;;;12.69;56.21;101197.06;6246531;22;45521;-64
2023/03/29 04:58:14;;;;;;;;;8.25;8.25;;;;;12.54;56.19;101168.97;6246803;22;46626;-64
2023/03/29 05:00:41;;;;;;;;;7.25;7.25;;;;;12.68;56.48;101184.59;6247071;22;45725;-64
2023/03/29 05:03:10;;;;;;;;;8.25;8.00;;;;;12.72;56.85;101198.75;6247634;22;45260;-64
2023/03/29 05:05:35;;;;;;;;;9.25;8.75;;;;;12.66;57.43;101193.59;6246824;22;45362;-64
2023/03/29 05:08:00;;;;;;;;;9.50;9.50;;;;;12.67;57.08;101196.22;6246189;22;46330;-64
2023/03/29 05:10:26;;;;;;;;;7.75;7.00;;;;;12.62;57.98;101191.97;6245481;22;45188;-64
2023/03/29 05:12:52;;;;;;;;;11.25;9.00;;;;;12.67;57.97;101206.09;6246062;22;45310;-64
2023/03/29 05:15:19;;;;;;;;;7.25;6.75;;;;;12.88;58.43;101233.94;6246997;22;45426;-64
2023/03/29 05:17:47;;;;;;;;;7.25;7.25;;;;;12.75;58.79;101218.28;6246869;22;45387;-64
2023/03/29 05:20:13;;;;;;;;;9.50;8.75;;;;;12.73;58.76;101200.50;6246719;22;45291;-64
2023/03/29 05:22:39;;;;;;;;;7.00;7.00;;;;;12.67;58.75;101184.66;6247287;22;45238;-64
2023/03/29 05:25:06;;;;;;;;;8.25;8.00;;;;;12.64;58.55;101182.94;6247144;22;45449;-64
2023/03/29 05:27:32;;;;;;;;;8.50;8.50;;;;;12.68;58.66;101189.06;6245870;22;46441;-64
2023/03/29 05:29:58;;;;;;;;;7.50;7.50;;;;;12.56;58.33;101171.59;6247066;22;45685;-64
2023/03/29 05:32:23;;;;;;;;;8.50;7.00;;;;;12.57;58.23;101170.69;6247304;22;45398;-64
2023/03/29 05:34:49;;;;;;;;;12.00;9.25;;;;;12.60;58.65;101165.25;6247112;22;45244;-64
2023/03/29 05:37:15;;;;;;;;;6.75;6.75;;;;;12.55;58.49;101153.81;6243785;22;46041;-64
2023/03/29 05:39:41;;;;;;;;;6.25;6.00;;;;;12.62;58.75;101166.06;6243025;22;45888;-64
2023/03/29 05:42:09;;;;;;;;;7.75;7.75;;;;;12.87;58.67;101202.72;6243827;22;45336;-64
2023/03/29 05:44:35;;;;;;;;;7.00;7.00;;;;;12.84;58.81;101197.47;6246158;22;45570;-64
2023/03/29 05:47:00;;;;;;;;;7.25;7.00;;;;;12.59;58.78;101156.31;6246551;22;46182;-65
2023/03/29 06:08:18;;;;;;;;;9.25;8.00;;;;;12.69;59.42;101177.44;6246918;22;46655;-65
2023/03/29 06:10:44;;;;;;;;;7.25;7.00;;;;;12.77;59.96;101178.06;6277733;22;45224;-64
2023/03/29 06:13:09;;;;;;;;;11.50;10.00;;;;;12.77;59.66;101170.88;6277010;22;45319;-65
2023/03/29 06:15:35;;;;;;;;;7.25;7.25;;;;;12.76;59.78;101161.09;6277665;22;45452;-65
2023/03/29 06:18:01;;;;;;;;;8.75;7.75;;;;;12.85;60.13;101172.44;6276573;22;45474;-66
2023/03/29 06:20:27;;;;;;;;;7.50;6.00;;;;;12.92;59.99;101185.53;6277646;22;45378;-66
2023/03/29 06:22:52;;;;;;;;;8.25;7.00;;;;;13.03;60.38;101203.94;6249001;22;45355;-66
2023/03/29 06:25:18;;;;;;;;;9.00;7.00;;;;;12.80;60.21;101172.59;6274058;22;45678;-66
2023/03/29 06:27:45;;;;;;;;;4.00;4.00;;;;;12.99;60.58;101199.59;6274887;22;47242;-66
2023/03/29 06:30:11;;;;;;;;;6.25;6.25;;;;;13.07;60.48;101202.03;6274293;22;45620;-64
2023/03/29 06:32:37;;;;;;;;;8.75;8.75;;;;;12.85;60.59;101167.06;6277260;22;45574;-64
2023/03/29 06:35:03;;;;;;;;;6.75;6.00;;;;;12.83;60.78;101152.84;6276143;22;45270;-64
2023/03/29 06:37:30;;;;;;;;;8.00;7.50;;;;;12.81;60.95;101150.22;6275592;22;45330;-64
2023/03/29 06:39:56;;;;;;;;;9.00;9.00;;;;;12.89;60.72;101164.22;6277070;22;45515;-64
2023/03/29 06:42:22;;;;;;;;;8.75;8.50;;;;;12.90;60.98;101176.69;6276668;22;45680;-64
2023/03/29 06:44:48;;;;;;;;;8.50;8.50;;;;;12.85;61.16;101170.63;6277316;22;45361;-64
2023/03/29 06:47:15;;;;;;;;;8.00;8.00;;;;;13.09;61.10;101217.09;6276763;22;45992;-64
2023/03/29 06:49:40;;;;;;;;;9.00;7.00;;;;;12.95;60.81;101182.75;6277490;22;45599;-64
2023/03/29 06:52:06;;;;;;;;;11.75;11.75;;;;;13.13;60.91;101213.41;6249869;22;45516;-64
2023/03/29 06:54:32;;;;;;;;;8.50;7.25;;;;;12.92;60.88;101176.63;6276111;22;45294;-64
2023/03/29 06:56:58;;;;;;;;;11.25;10.75;;;;;12.91;60.94;101165.06;6266549;22;46293;-64
2023/03/29 06:59:24;;;;;;;;;8.50;8.50;;;;;12.92;61.30;101172.16;6272500;22;45281;-64
2023/03/29 07:01:52;;;;;;;;;8.00;7.75;;;;;13.06;61.14;101194.91;6275686;22;45474;-64
2023/03/29 07:04:18;;;;;;;;;8.75;7.25;;;;;12.98;60.88;101173.75;6273212;22;45702;-64
2023/03/29 07:06:47;;;;;;;;;7.50;7.00;;;;;13.13;61.23;101193.75;6273119;22;47007;-64
2023/03/29 07:09:15;;;;;;;;;8.00;5.00;;;;;12.97;60.98;101164.81;6269645;22;45819;-64
2023/03/29 07:11:41;;;;;;;;;9.75;9.75;;;;;12.94;61.16;101156.88;6270510;22;45734;-64
2023/03/29 07:14:07;;;;;;;;;10.25;9.75;;;;;13.01;61.03;101173.63;6273630;22;45587;-64
2023/03/29 07:16:35;;;;;;;;;13.00;10.75;;;;;12.98;60.95;101168.41;6275119;22;46180;-64
2023/03/29 07:19:02;;;;;;;;;9.50;9.50;;;;;13.02;60.91;101175.38;6274819;22;45544;-64
2023/03/29 07:21:28;;;;;;;;;8.50;8.50;;;;;13.20;60.77;101205.13;6275669;22;45313;-65
2023/03/29 07:24:10;;;;;;;;;;;;;;;;;;;;;
2023/03/29 07:26:35;;;;;;;;;8.75;8.75;;;;;13.15;61.14;101191.91;6271803;22;74109;-64
2023/03/29 07:29:00;;;;;;;;;9.00;9.00;;;;;13.03;60.85;101166.41;6247422;22;45666;-64
2023/03/29 07:31:28;;;;;;;;;9.00;8.00;;;;;13.06;60.89;101168.09;6276979;22;45462;-63
2023/03/29 07:33:54;;;;;;;;;11.50;9.50;;;;;13.20;60.35;101183.69;6276809;22;45277;-63
2023/03/29 07:36:20;;;;;;;;;8.00;8.00;;;;;13.37;60.88;101199.22;6276380;22;46468;-64
2023/03/29 07:38:48;;;;;;;;;9.00;9.00;;;;;13.30;60.94;101190.47;6276856;22;45394;-63
2023/03/29 07:41:14;;;;;;;;;13.00;9.75;;;;;13.31;60.66;101195.78;6274485;22;45518;-63
2023/03/29 07:43:40;;;;;;;;;9.00;8.50;;;;;13.28;60.66;101174.44;6245703;22;45397;-63
2023/03/29 07:46:06;;;;;;;;;6.50;6.25;;;;;13.43;60.90;101190.91;6275205;22;45780;-63
2023/03/29 07:48:32;;;;;;;;;5.75;5.75;;;;;13.36;60.82;101173.31;6275530;22;45385;-63
2023/03/29 07:50:58;;;;;;;;;8.50;7.75;;;;;13.64;61.07;101198.16;6276270;22;45613;-63
2023/03/29 07:53:23;;;;;;;;;14.25;10.50;;;;;13.45;60.91;101156.91;6248357;22;45669;-64
2023/03/29 07:55:51;;;;;;;;;9.25;9.25;;;;;13.46;60.90;101158.63;6275921;22;45319;-64
2023/03/29 07:58:16;;;;;;;;;13.75;11.25;;;;;13.73;61.32;101196.06;6273732;22;45345;-64
2023/03/29 08:00:42;;;;;;;;;14.00;10.00;;;;;13.76;61.21;101199.50;6270569;22;45828;-63
2023/03/29 08:03:14;;;;;;;;;8.25;8.25;;;;;13.67;61.07;101192.69;6273247;22;45356;-63
2023/03/29 08:05:39;;;;;;;;;11.00;11.00;;;;;13.71;61.41;101185.38;6275477;22;46185;-65
2023/03/29 08:08:13;;;;;;;;;10.50;10.50;;;;;13.94;61.38;101231.94;6270380;22;45574;-67
2023/03/29 08:10:41;;;;;;;;;12.50;11.25;;;;;13.77;61.23;101184.28;6272905;22;45492;-66
2023/03/29 08:13:08;;;;;;;;;6.75;4.75;;;;;13.80;61.30;101181.47;6274850;22;45749;-66
2023/03/29 08:15:36;;;;;;;;;11.00;11.00;;;;;14.04;61.43;101219.91;6272041;22;46560;-66
2023/03/29 08:18:02;;;;;;;;;9.25;9.25;;;;;13.85;61.11;101184.88;6273879;22;45269;-66
2023/03/29 08:20:27;;;;;;;;;9.50;9.50;;;;;13.85;61.30;101175.00;6274697;22;45356;-65
2023/03/29 08:22:56;;;;;;;;;10.50;9.00;;;;;14.15;61.62;101223.06;6274678;22;45279;-65
2023/03/29 08:25:21;;;;;;;;;10.00;9.50;;;;;14.00;61.43;101194.09;6275982;22;46453;-65
2023/03/29 08:27:47;;;;;;;;;10.50;7.75;;;;;13.94;61.67;101179.13;6275149;22;45710;-65
2023/03/29 08:30:13;;;;;;;;;8.00;8.00;;;;;13.99;61.98;101179.81;6275605;22;45368;-68
2023/03/29 08:32:39;;;;;;;;;9.75;8.75;;;;;14.07;61.60;101180.38;6275267;22;45265;-66
2023/03/29 08:35:08;;;;;;;;;9.75;6.75;;;;;14.28;62.39;101209.97;6275935;22;45839;-66
2023/03/29 08:37:35;;;;;;;;;9.50;8.00;;;;;14.06;62.26;101167.03;6275220;22;45438;-65
2023/03/29 08:40:01;;;;;;;;;7.00;7.00;;;;;14.18;62.45;101179.06;6275633;22;45398;-66
2023/03/29 08:43:08;;;;;;;;;10.50;9.50;;;;;14.38;62.41;101219.44;6273910;22;45320;-65
2023/03/29 08:45:43;;;;;;;;;7.50;7.50;;;;;14.43;63.18;101208.50;6246265;22;47459;-65
2023/03/29 08:48:31;;;;;;;;;8.75;8.75;;;;;14.29;63.07;101174.16;6273644;22;45403;-66
2023/03/29 08:52:22;;;;;;;;;;;;;;;;;;;;;
2023/03/29 08:55:00;;;;;;;;;;;;;;;;;;;;;
2023/03/29 08:57:42;;;;;;;;;7.25;6.75;;;;;14.46;63.83;101163.56;6274189;22;75499;-69
2023/03/29 09:00:18;;;;;;;;;6.50;5.50;;;;;14.54;64.01;101173.13;6273498;22;45724;-65
2023/03/29 09:02:44;;;;;;;;;9.25;8.25;;;;;14.70;63.56;101181.44;6275713;22;45392;-66
2023/03/29 09:05:22;;;;;;;;;7.00;7.00;;;;;14.84;63.65;101205.06;6248783;22;46119;-65
2023/03/29 09:07:48;;;;;;;;;7.00;7.00;;;;;14.71;64.04;101167.09;6275044;22;45455;-66
2023/03/29 09:10:17;;;;;;;;;8.50;7.25;;;;;14.72;63.91;101163.47;6274549;22;45315;-65
2023/03/29 09:13:20;;;;;;;;;10.50;9.00;;;;;15.01;63.60;101207.88;6276024;22;45577;-66
2023/03/29 09:15:55;;;;;;;;;4.50;3.00;;;;;15.07;63.85;101198.66;6275565;22;45658;-65
2023/03/29 09:18:33;;;;;;;;;7.00;7.00;;;;;14.95;63.67;101167.81;6266199;22;45909;-66
2023/03/29 09:21:21;;;;;;;;;8.25;5.00;;;;;15.12;63.61;101185.91;6244238;22;45542;-66
2023/03/29 09:24:05;;;;;;;;;5.50;4.25;;;;;15.25;63.56;101200.56;6276166;22;45308;-66
2023/03/29 09:26:47;;;;;;;;;8.00;6.00;;;;;15.28;63.85;101192.34;6244562;22;45634;-65
2023/03/29 09:29:12;;;;;;;;;10.00;6.75;;;;;15.31;64.00;101185.97;6246501;22;47332;-65
2023/03/29 09:31:43;;;;;;;;;11.00;7.00;;;;;15.15;64.10;101166.94;6274893;22;45296;-66
2023/03/29 09:34:53;;;;;;;;;9.50;8.75;;;;;15.41;64.29;101184.59;6273237;22;45338;-65
2023/03/29 09:37:31;;;;;;;;;7.00;6.00;;;;;15.22;64.30;101137.94;6210113;22;45347;-66
2023/03/29 09:39:57;;;;;;;;;5.50;4.75;;;;;15.51;64.40;101188.59;6267371;22;45310;-66
2023/03/29 09:42:26;;;;;;;;;8.75;6.25;;;;;15.48;64.75;101169.03;6273977;22;45288;-66
2023/03/29 09:44:56;;;;;;;;;7.50;6.25;;;;;15.38;64.26;101144.38;6275034;22;45358;-65
2023/03/29 09:47:29;;;;;;;;;5.00;4.00;;;;;15.57;64.71;101169.50;6273460;22;45304;-65
2023/03/29 09:50:20;;;;;;;;;6.75;5.75;;;;;15.67;64.27;101160.97;6247239;22;48039;-65
2023/03/29 09:52:47;;;;;;;;;6.25;6.00;;;;;15.68;64.34;101162.72;6247296;22;45788;-66
2023/03/29 09:55:14;;;;;;;;;6.50;5.75;;;;;15.82;64.78;101170.19;6248104;22;45351;-65
2023/03/29 09:57:40;;;;;;;;;6.00;5.75;;;;;15.82;64.48;101157.63;6246297;22;45394;-66
2023/03/29 10:00:06;;;;;;;;;6.00;5.00;;;;;15.98;64.48;101170.34;6269692;22;46544;-66
2023/03/29 10:02:31;;;;;;;;;6.00;5.25;;;;;15.84;63.77;101131.50;6273660;22;45511;-66
2023/03/29 10:05:02;;;;;;;;;7.25;5.00;;;;;16.03;63.73;101155.69;6274460;22;45252;-65
2023/03/29 10:07:58;;;;;;;;;9.50;6.00;;;;;16.09;63.46;101151.84;6275460;22;45344;-66
2023/03/29 10:10:30;;;;;;;;;5.50;5.00;;;;;16.15;63.87;101146.13;6272794;22;45379;-66
2023/03/29 10:12:59;;;;;;;;;6.00;6.00;;;;;16.08;63.61;101125.84;6274327;22;45462;-66
2023/03/29 10:15:28;;;;;;;;;4.75;4.75;;;;;16.11;63.87;101131.94;6275383;22;45658;-66
2023/03/29 10:18:04;;;;;;;;;8.25;5.75;;;;;16.23;63.51;101125.06;6274195;22;45602;-66
2023/03/29 10:20:33;;;;;;;;;8.00;5.50;;;;;16.35;63.60;101128.97;6246653;22;48038;-66
2023/03/29 10:22:58;;;;;;;;;9.75;5.50;;;;;16.46;63.23;101129.31;6275735;22;45387;-66
2023/03/29 10:25:31;;;;;;;;;4.00;4.00;;;;;16.52;63.05;101130.81;6277241;22;45325;-66
2023/03/29 10:28:07;;;;;;;;;6.00;6.00;;;;;16.54;62.76;101114.56;6248561;22;45512;-66
2023/03/29 10:30:36;;;;;;;;;3.50;3.50;;;;;16.66;62.27;101133.69;6248812;22;47193;-66
2023/03/29 10:33:02;;;;;;;;;6.00;5.25;;;;;16.57;62.43;101101.84;6272586;22;45580;-66
2023/03/29 10:35:40;;;;;;;;;5.00;4.00;;;;;16.66;62.38;101112.13;6248990;22;45241;-66
2023/03/29 10:38:12;;;;;;;;;8.25;6.75;;;;;16.80;62.09;101124.00;6275798;22;45532;-66
2023/03/29 10:41:06;;;;;;;;;8.25;5.50;;;;;16.89;61.67;101128.97;6276331;22;45252;-66
2023/03/29 10:43:38;;;;;;;;;7.25;4.25;;;;;16.75;61.24;101091.88;6267924;22;45849;-66
2023/03/29 10:46:12;;;;;;;;;8.25;5.25;;;;;16.88;60.80;101104.78;6275498;22;45339;-66
2023/03/29 10:48:38;;;;;;;;;5.25;5.25;;;;;16.81;59.89;101088.88;6275662;22;45411;-66
2023/03/29 10:51:04;;;;;;;;;6.25;5.00;;;;;16.89;59.47;101093.00;6276357;22;46320;-66
2023/03/29 10:53:32;;;;;;;;;6.25;3.75;;;;;17.06;59.74;101108.28;6275720;22;45330;-66
2023/03/29 10:56:21;;;;;;;;;3.25;3.00;;;;;17.17;59.29;101116.69;6276684;22;45319;-66
2023/03/29 10:59:13;;;;;;;;;4.00;2.00;;;;;17.03;57.76;101076.97;6275239;22;45394;-66
2023/03/29 11:01:56;;;;;;;;;4.00;2.00;;;;;17.03;56.23;101069.75;6275754;22;45364;-66
2023/03/29 11:04:40;;;;;;;;;2.00;2.00;;;;;17.26;55.46;101110.81;6276986;22;45258;-66
2023/03/29 11:07:11;;;;;;;;;4.00;3.25;;;;;17.31;55.08;101102.47;6276812;22;45288;-66
2023/03/29 11:10:00;;;;;;;;;3.00;3.00;;;;;17.38;55.19;101101.16;6277275;22;45436;-66
2023/03/29 11:12:37;;;;;;;;;3.00;3.00;;;;;17.38;55.76;101082.28;6275525;22;45208;-66
2023/03/29 11:15:27;;;;;;;;;2.25;2.00;;;;;17.47;55.54;101084.44;6277143;22;45253;-66
2023/03/29 11:18:30;;;;;;;;;4.50;3.50;;;;;17.58;55.10;101097.34;6275697;22;45372;-67
2023/03/29 11:21:17;;;;;;;;;3.25;2.75;;;;;17.64;54.12;101088.91;6276635;22;45508;-68
2023/03/29 11:24:20;;;;;;;;;4.50;3.75;;;;;17.72;53.89;101085.75;6248543;22;46778;-66
2023/03/29 11:27:14;;;;;;;;;3.00;1.50;;;;;17.80;54.04;101090.75;6249046;22;45613;-65
2023/03/29 11:29:59;;;;;;;;;1.50;1.50;;;;;17.86;52.35;101087.66;6277473;22;45449;-65
2023/03/29 11:32:33;;;;;;;;;2.00;2.00;;;;;17.91;52.31;101091.03;6277462;22;45264;-66
2023/03/29 11:35:07;;;;;;;;;4.75;3.00;;;;;17.95;52.30;101085.34;6276569;22;46058;-66
2023/03/29 11:37:58;;;;;;;;;3.50;2.75;;;;;17.86;52.03;101061.56;6248062;22;45867;-66
2023/03/29 11:40:34;;;;;;;;;3.00;3.00;;;;;18.04;51.78;101083.97;6276490;22;45315;-66
2023/03/29 11:43:04;;;;;;;;;2.50;2.00;;;;;18.02;52.44;101072.34;6275945;22;45390;-66
2023/03/29 11:45:38;;;;;;;;;3.50;2.00;;;;;18.09;50.94;101073.75;6277018;22;46546;-66
2023/03/29 11:48:12;;;;;;;;;4.50;2.75;;;;;18.15;51.15;101067.97;6249124;22;45729;-66
2023/03/29 11:50:52;;;;;;;;;3.50;2.50;;;;;18.12;51.33;101059.19;6277019;22;45520;-66
2023/03/29 11:53:30;;;;;;;;;3.00;2.00;;;;;18.08;51.18;101030.63;6247949;22;45645;-66
2023/03/29 11:56:07;;;;;;;;;3.50;1.75;;;;;18.31;50.20;101050.88;6276832;22;45431;-66
2023/03/29 11:58:41;;;;;;;;;2.25;2.00;;;;;18.26;49.34;101028.63;6276055;22;45443;-66
2023/03/29 12:01:16;;;;;;;;;2.00;1.75;;;;;18.32;49.44;101025.56;6249317;22;45295;-66